Sperry, Oklahoma
Current Conditions -  °F | °C
As of 7:53 AM on Saturday 20 Dec 2014 (Local Time) from KTUL Reporting Station
Haze Haze  
Wind Chill: 36°   Ceiling: 2800
Heat Index: 39°   Visibility: 6mi
Dew Point: 36°   Wind: 5mph
Humidity: 89%   Direction: 170°S
Pressure: 30.26"   Gusts: NA
Location:  36.3°N, 95.99°W
Report Text: KTUL 201353Z 17004KT 6SM BR OVC028 04/02 A3026 RMK AO2 SLP248 T00390022
Loading
Personal Weather Stations






























Interactive Weather Map New forecast layout! Learn more

10-Day Weather Forecast

Advertisements
Track Severe Weather on mobile